Flight Track Log - Related Links

Times and Time Zones

All times are in EST time to prevent confusion due to time zone crossing. See the N589H flight status page for this flight to view local times or setup timezone preferences in your user account.

Time Position Orientation Groundspeed Altitude Reporting Facility
EST Latitude Longitude Course Direction KTS MPH feet Rate Location/Type
Wed 07:57:17 AM 27.9000 -82.6833 180° South 161 185 600  Level Tampa TRACON
Wed 07:57:47 AM 27.8667 -82.6833 180° South 168 193 1,600 1,667 Climbing Tampa TRACON
Wed 07:58:47 AM 27.8500 -82.7333 249° West 205 236 3,100 1,650 Climbing Tampa TRACON
Wed 07:59:47 AM 27.8833 -82.7667 319° Northwest 219 252 4,900 2,150 Climbing Tampa TRACON
Wed 08:00:47 AM 27.9500 -82.7500 12° North 226 260 7,400 2,158 Climbing Tampa TRACON
Wed 08:01:41 AM 27.9500 -82.6833 90° East 238 274 9,000 842 Climbing Tampa TRACON
Wed 08:02:41 AM 27.9667 -82.6000 77° East 302 348 9,000  Level Tampa TRACON
Wed 08:03:41 AM 27.9667 -82.5000 90° East 307 353 9,000  Level Tampa TRACON
Wed 08:04:41 AM 27.9667 -82.4000 90° East 318 366 9,000  Level Tampa TRACON
Wed 08:05:41 AM 27.9667 -82.3000 90° East 320 368 9,000  Level Tampa TRACON
Wed 08:06:41 AM 27.9833 -82.2000 79° East 321 369 9,000  Level Tampa TRACON
Wed 08:07:42 AM 27.9833 -82.1000 90° East 321 369 9,000  Level Tampa TRACON
Wed 08:09:24 AM 28.0000 -81.9167 84° East 316 364 9,000  Level Orlando TRACON
Wed 08:10:18 AM 28.0167 -81.8333 77° East 319 367 9,000  Level Orlando TRACON
Wed 08:11:24 AM 28.0333 -81.7333 79° East 320 368 9,000  Level Orlando TRACON
Wed 08:12:18 AM 28.0333 -81.6333 90° East 324 373 9,000  Level Orlando TRACON
Wed 08:13:24 AM 28.0500 -81.5167 81° East 326 375 9,000 -238 Level Orlando TRACON
Wed 08:14:24 AM 28.0667 -81.4167 79° East 324 373 8,500 -992 Descending Orlando TRACON
Wed 08:15:25 AM 28.0833 -81.3333 77° East 305 351 7,000 -1,339 Descending Orlando TRACON
Wed 08:16:25 AM 28.0833 -81.2333 90° East 297 342 5,800 -1,344 Descending Orlando TRACON
Wed 08:17:30 AM 28.1000 -81.1333 79° East 289 333 4,200 -1,400 Descending Orlando TRACON
Wed 08:18:25 AM 28.0833 -81.0667 106° East 258 297 3,000 -632 Descending Orlando TRACON
Wed 08:19:24 AM 28.0833 -80.9833 90° East 252 290 3,000  Level Orlando TRACON
Wed 08:20:25 AM 28.0667 -80.9000 103° East 282 325 3,000  Level Orlando TRACON
Wed 08:21:25 AM 28.0500 -80.8000 101° East 285 328 3,000  Level Orlando TRACON
Wed 08:22:31 AM 28.0333 -80.7167 103° East 280 322 3,000 -500 Level Orlando TRACON
Wed 08:23:37 AM 28.0333 -80.6333 90° East 202 232 1,900 -818 Descending Orlando TRACON
Wed 08:24:43 AM 28.0667 -80.6000 41° Northeast 145 167 1,200 -632 Descending Orlando TRACON
Wed 08:25:31 AM 28.1000 -80.6000 360° North 146 168 700 -625 Descending Orlando TRACON

Login

Don't have an account? Register now (free) for customized features, flight alerts, and more!